Terminal Aerodrome Forecast
Issued by NWS Spokane, WA

Home | Current Version | Previous Version | Text Only | Print | Product List | Glossary On
Versions: 1 2 3 4 5 6 7 8 9 10 11 12 13 14 15 16 17 18 19 20 21 22 23 24 25 26 27 28 29 30 31 32 33 34 35 36 37 38
384
FTUS46 KOTX 261140
TAFGEG
TAF
KGEG 261140Z 2612/2712 18006KT P6SM -RA BKN012 OVC020
     FM261330 20010KT P6SM OVC015
     FM261600 20010KT P6SM BKN025
     FM261730 22015G24KT P6SM SCT040 BKN070
     FM262300 22015G24KT P6SM -SHRA BKN050
     FM270400 22013G19KT P6SM SCT060=

USA.gov is the U.S. government's official web portal to all federal, state and local government web resources and services.